Time;durP1;ratioP1;P1;durP2;ratioP2;P2;SDS_P1;SDS_P2;PMS_P1;PMS_P2;Temp;Humidity;BMP_temperature;BMP_pressure;BME280_temperature;BME280_humidity;BME280_pressure;Samples;Min_cycle;Max_cycle;Signal;HPM_P1;HPM_P2
2021/10/23 00:01:16;;;;;;;;;24.50;22.50;;;;;12.40;55.39;102169.56;5080880;27;45556;-49
2021/10/23 00:03:41;;;;;;;;;22.50;20.50;;;;;12.42;55.45;102178.34;5082380;27;45347;-53
2021/10/23 00:06:06;;;;;;;;;24.50;20.00;;;;;12.44;55.68;102186.22;5082121;27;45299;-51
2021/10/23 00:08:32;;;;;;;;;19.50;16.25;;;;;12.43;55.69;102188.00;5082041;27;46098;-51
2021/10/23 00:10:57;;;;;;;;;22.00;19.50;;;;;12.45;55.70;102185.38;5081903;27;45328;-52
2021/10/23 00:13:23;;;;;;;;;19.25;19.00;;;;;12.44;55.78;102186.22;5082167;27;45263;-53
2021/10/23 00:15:48;;;;;;;;;17.00;17.00;;;;;12.44;55.70;102173.94;5081897;27;45420;-50
2021/10/23 00:18:13;;;;;;;;;16.50;15.75;;;;;12.43;55.50;102166.06;5080820;27;47539;-51
2021/10/23 00:20:39;;;;;;;;;15.00;14.25;;;;;12.44;55.68;102175.69;5080801;28;45407;-50
2021/10/23 00:23:04;;;;;;;;;21.50;19.25;;;;;12.43;55.67;102172.19;5082333;27;45474;-53
2021/10/23 00:25:29;;;;;;;;;13.25;13.25;;;;;12.45;55.70;102180.09;5081786;27;45223;-49
2021/10/23 00:27:55;;;;;;;;;14.50;13.75;;;;;12.43;55.85;102182.72;5094101;27;45363;-50
2021/10/23 00:30:23;;;;;;;;;23.50;17.75;;;;;12.40;55.86;102168.66;5100383;27;45213;-53
2021/10/23 00:32:49;;;;;;;;;13.00;13.00;;;;;12.41;55.88;102179.19;5081938;27;45176;-53
2021/10/23 00:35:15;;;;;;;;;20.50;16.50;;;;;12.43;55.69;102181.88;5080349;27;45413;-52
2021/10/23 00:37:40;;;;;;;;;17.50;16.25;;;;;12.41;55.71;102178.34;5080459;28;46216;-48
2021/10/23 00:40:06;;;;;;;;;18.75;15.75;;;;;12.40;55.87;102179.22;5080975;27;45347;-50
2021/10/23 00:42:34;;;;;;;;;21.25;18.25;;;;;12.39;55.69;102180.09;5080621;28;45384;-52
2021/10/23 00:44:59;;;;;;;;;17.75;16.00;;;;;12.37;55.89;102179.22;5081467;27;45520;-49
2021/10/23 00:47:25;;;;;;;;;16.50;16.50;;;;;12.35;56.12;102182.72;5081818;27;45398;-53
2021/10/23 00:49:52;;;;;;;;;19.00;17.75;;;;;12.35;55.88;102185.38;5094199;27;45215;-50
2021/10/23 00:52:20;;;;;;;;;14.25;13.25;;;;;12.37;55.70;102179.22;5081676;27;45228;-53
2021/10/23 00:54:46;;;;;;;;;16.25;16.00;;;;;12.37;55.92;102181.84;5081121;27;45464;-51
2021/10/23 00:57:11;;;;;;;;;14.25;14.25;;;;;12.35;55.95;102180.09;5081283;27;46216;-50
2021/10/23 00:59:37;;;;;;;;;15.75;15.00;;;;;12.37;55.83;102187.13;5081421;27;45337;-51
2021/10/23 01:02:03;;;;;;;;;13.50;12.50;;;;;12.35;55.74;102185.38;5081659;27;45322;-48
2021/10/23 01:04:29;;;;;;;;;15.00;14.00;;;;;12.37;56.02;102192.41;5081393;27;45464;-51
2021/10/23 01:06:55;;;;;;;;;18.50;14.00;;;;;12.38;55.99;102188.88;5081357;27;45265;-51
2021/10/23 01:09:22;;;;;;;;;15.25;10.50;;;;;12.37;55.61;102184.50;5079760;27;45295;-52
2021/10/23 01:11:49;;;;;;;;;15.25;12.00;;;;;12.38;55.91;102183.59;5081318;27;45248;-49
2021/10/23 01:14:25;;;;;;;;;16.00;13.00;;;;;12.41;55.61;102183.59;5081032;27;45454;-48
2021/10/23 01:16:52;;;;;;;;;15.25;13.00;;;;;12.42;55.93;102180.09;5080920;27;47004;-49
2021/10/23 01:19:18;;;;;;;;;12.50;12.50;;;;;12.44;55.77;102178.31;5080890;27;45325;-52
2021/10/23 01:21:46;;;;;;;;;15.25;13.50;;;;;12.45;55.80;102190.63;5081339;27;45265;-50
2021/10/23 01:24:12;;;;;;;;;17.75;12.25;;;;;12.46;55.99;102182.72;5080946;27;45272;-50
2021/10/23 01:26:37;;;;;;;;;13.75;12.25;;;;;12.48;55.66;102174.84;5082057;27;45400;-50
2021/10/23 01:29:05;;;;;;;;;14.50;11.75;;;;;12.50;55.94;102176.59;5101204;27;45283;-49
2021/10/23 01:31:30;;;;;;;;;12.00;12.00;;;;;12.52;55.74;102171.31;5089884;27;45400;-52
2021/10/23 01:33:57;;;;;;;;;13.50;12.00;;;;;12.54;55.89;102172.22;5080661;27;45339;-52
2021/10/23 01:36:22;;;;;;;;;12.50;10.25;;;;;12.55;55.97;102179.22;5080899;27;46336;-52
2021/10/23 01:38:48;;;;;;;;;13.25;11.25;;;;;12.57;55.58;102166.91;5079317;28;45351;-51
2021/10/23 01:41:14;;;;;;;;;13.50;13.00;;;;;12.60;55.82;102173.94;5080951;27;45267;-52
2021/10/23 01:43:40;;;;;;;;;13.25;11.75;;;;;12.62;55.98;102166.94;5080647;27;45548;-50
2021/10/23 01:46:06;;;;;;;;;15.25;13.50;;;;;12.63;55.90;102158.16;5080762;28;46418;-51
2021/10/23 01:48:34;;;;;;;;;13.00;12.00;;;;;12.64;55.99;102160.78;5082950;27;45884;-52
2021/10/23 01:50:59;;;;;;;;;11.75;10.50;;;;;12.67;55.58;102152.84;5088484;27;45315;-52
2021/10/23 01:53:25;;;;;;;;;13.00;13.00;;;;;12.68;56.00;102156.38;5079899;27;45342;-53
2021/10/23 01:55:52;;;;;;;;;13.50;10.50;;;;;12.68;55.54;102162.53;5080451;27;45382;-53
2021/10/23 01:58:18;;;;;;;;;15.00;12.00;;;;;12.71;55.73;102164.28;5080323;27;45326;-52
2021/10/23 02:00:43;;;;;;;;;14.00;10.75;;;;;12.72;55.69;102158.13;5080557;27;45265;-53
2021/10/23 02:03:09;;;;;;;;;16.75;12.75;;;;;12.73;55.90;102154.63;5080220;27;45328;-52
2021/10/23 02:05:34;;;;;;;;;13.25;11.50;;;;;12.73;55.84;102153.72;5079107;28;46916;-52
2021/10/23 02:08:00;;;;;;;;;17.00;14.00;;;;;12.74;55.74;102142.28;5079088;27;45565;-51
2021/10/23 02:10:25;;;;;;;;;13.75;12.00;;;;;12.73;55.75;102140.53;5080350;27;45234;-53
2021/10/23 02:12:50;;;;;;;;;15.25;15.00;;;;;12.72;55.92;102136.16;5080080;27;45276;-52
2021/10/23 02:15:16;;;;;;;;;16.75;14.00;;;;;12.72;55.92;102138.81;5079058;28;45212;-52
2021/10/23 02:17:41;;;;;;;;;18.25;12.00;;;;;12.71;55.66;102142.31;5080255;27;45351;-49
2021/10/23 02:20:09;;;;;;;;;14.25;12.25;;;;;12.71;55.68;102145.81;5080425;27;45852;-52
2021/10/23 02:22:35;;;;;;;;;14.25;14.00;;;;;12.71;55.93;102140.53;5080130;27;45516;-52
2021/10/23 02:25:01;;;;;;;;;17.75;15.50;;;;;12.70;55.58;102127.38;5080021;27;45281;-52
2021/10/23 02:27:26;;;;;;;;;17.50;15.75;;;;;12.62;55.88;102115.06;5088016;27;45263;-51
2021/10/23 02:29:52;;;;;;;;;16.75;14.50;;;;;12.68;55.68;102136.16;5100851;27;45321;-56
2021/10/23 02:32:17;;;;;;;;;14.75;13.75;;;;;12.67;55.62;102130.88;5080632;27;45348;-50
2021/10/23 02:34:42;;;;;;;;;15.25;13.75;;;;;12.66;55.69;102127.34;5079922;27;45252;-51
2021/10/23 02:37:08;;;;;;;;;17.00;15.00;;;;;12.65;55.87;102137.91;5079946;27;45405;-51
2021/10/23 02:39:33;;;;;;;;;15.25;13.25;;;;;12.66;55.55;102127.34;5080208;27;45255;-51
2021/10/23 02:41:59;;;;;;;;;17.50;17.00;;;;;12.64;55.73;102113.31;5079751;27;45483;-50
2021/10/23 02:44:24;;;;;;;;;14.75;14.75;;;;;12.64;55.70;102123.84;5078747;28;45842;-51
2021/10/23 02:46:50;;;;;;;;;14.00;13.50;;;;;12.65;55.79;102124.72;5079764;27;45161;-52
2021/10/23 02:49:17;;;;;;;;;20.00;17.50;;;;;12.65;55.88;102136.16;5090136;27;45383;-53
2021/10/23 02:51:42;;;;;;;;;19.50;17.00;;;;;12.62;55.56;102120.31;5082580;27;45457;-49
2021/10/23 02:54:08;;;;;;;;;16.50;16.50;;;;;12.65;55.96;102135.28;5079708;27;46147;-50
2021/10/23 02:56:33;;;;;;;;;15.25;13.50;;;;;12.63;55.60;102126.50;5079663;27;45345;-49
2021/10/23 02:58:58;;;;;;;;;17.25;14.00;;;;;12.63;55.92;102135.28;5079993;27;45218;-48
2021/10/23 03:01:24;;;;;;;;;11.25;11.25;;;;;12.64;55.66;102128.22;5079700;27;45434;-52
2021/10/23 03:03:50;;;;;;;;;19.25;15.50;;;;;12.64;55.96;102139.69;5082030;27;45300;-52
2021/10/23 03:06:18;;;;;;;;;21.50;16.75;;;;;12.65;55.69;102143.19;5083148;27;45258;-52
2021/10/23 03:08:44;;;;;;;;;14.75;14.50;;;;;12.65;55.87;102136.16;5083500;27;45477;-53
2021/10/23 03:11:09;;;;;;;;;20.75;15.00;;;;;12.64;55.78;102129.13;5081543;27;45493;-50
2021/10/23 03:13:35;;;;;;;;;20.25;17.50;;;;;12.65;55.61;102140.53;5082767;27;45349;-50
2021/10/23 03:16:00;;;;;;;;;15.25;14.00;;;;;12.65;55.88;102149.34;5082814;27;45154;-52
2021/10/23 03:18:25;;;;;;;;;16.75;15.25;;;;;12.65;55.95;102145.81;5083323;27;45266;-49
2021/10/23 03:20:51;;;;;;;;;16.50;16.00;;;;;12.66;55.95;102147.59;5083007;27;45531;-51
2021/10/23 03:23:16;;;;;;;;;17.75;14.75;;;;;12.65;55.98;102143.19;5083117;27;46416;-48
2021/10/23 03:25:45;;;;;;;;;16.50;15.25;;;;;12.65;55.59;102144.06;5082716;27;45216;-50
2021/10/23 03:28:14;;;;;;;;;11.75;11.00;;;;;12.64;55.80;102134.41;5097569;27;45260;-51
2021/10/23 03:30:40;;;;;;;;;14.25;13.00;;;;;12.64;55.76;102138.78;5098703;27;45446;-53
2021/10/23 03:33:05;;;;;;;;;16.00;13.00;;;;;12.64;55.88;102139.69;5082634;27;46342;-51
2021/10/23 03:35:31;;;;;;;;;17.25;13.00;;;;;12.64;55.72;102146.69;5082630;27;45430;-53
2021/10/23 03:37:57;;;;;;;;;12.50;11.00;;;;;12.60;56.08;102127.38;5082996;27;45608;-52
2021/10/23 03:40:23;;;;;;;;;13.00;13.00;;;;;12.62;56.06;102133.50;5082475;27;45495;-51
2021/10/23 03:42:48;;;;;;;;;13.00;13.00;;;;;12.60;55.99;102135.28;5082744;27;46272;-52
2021/10/23 03:45:14;;;;;;;;;15.25;14.00;;;;;12.61;55.81;102138.78;5082551;27;45450;-52
2021/10/23 03:47:39;;;;;;;;;19.00;14.75;;;;;12.61;55.96;102133.53;5082743;27;45931;-49
2021/10/23 03:50:05;;;;;;;;;18.00;16.00;;;;;12.62;56.03;102130.00;5094869;27;45366;-52
2021/10/23 03:52:32;;;;;;;;;16.50;14.25;;;;;12.61;56.11;102126.47;5082620;27;45999;-51
2021/10/23 03:54:57;;;;;;;;;14.25;11.25;;;;;12.62;55.88;102130.88;5081979;27;45437;-49
2021/10/23 03:57:23;;;;;;;;;16.00;14.75;;;;;12.63;56.16;102134.41;5082542;27;45333;-51
2021/10/23 03:59:49;;;;;;;;;14.00;13.50;;;;;12.63;55.88;102126.50;5082328;27;45315;-47
2021/10/23 04:02:14;;;;;;;;;13.00;12.25;;;;;12.62;55.99;102132.66;5082508;27;46109;-49
2021/10/23 04:04:39;;;;;;;;;13.25;13.00;;;;;12.63;55.94;102127.38;5081015;28;45565;-52
2021/10/23 04:07:05;;;;;;;;;15.50;11.75;;;;;12.62;55.97;102128.25;5082519;27;46007;-49
2021/10/23 04:09:30;;;;;;;;;19.00;15.25;;;;;12.64;55.88;102122.97;5082016;27;45441;-50
2021/10/23 04:11:56;;;;;;;;;15.50;14.00;;;;;12.61;56.09;102117.69;5082183;27;46209;-52
2021/10/23 04:14:22;;;;;;;;;14.75;12.50;;;;;12.62;56.19;102116.81;5081113;27;45358;-51
2021/10/23 04:16:48;;;;;;;;;15.00;13.25;;;;;12.61;55.92;102129.13;5082131;27;45256;-48
2021/10/23 04:19:13;;;;;;;;;13.50;12.25;;;;;12.61;55.78;102134.38;5082124;27;45529;-49
2021/10/23 04:21:39;;;;;;;;;15.25;12.00;;;;;12.59;56.24;102125.63;5081999;27;45976;-49
2021/10/23 04:24:05;;;;;;;;;15.75;14.00;;;;;12.57;55.97;102127.38;5082014;27;45480;-48
2021/10/23 04:26:30;;;;;;;;;13.50;12.25;;;;;12.56;56.06;102125.59;5082289;27;45525;-50
2021/10/23 04:28:55;;;;;;;;;12.00;11.25;;;;;12.56;55.99;102127.38;5102248;27;45563;-48
2021/10/23 04:31:21;;;;;;;;;13.00;13.00;;;;;12.56;55.98;102130.00;5092037;27;46021;-50
2021/10/23 04:33:46;;;;;;;;;14.75;11.75;;;;;12.53;56.17;102128.25;5081751;27;45409;-49
2021/10/23 04:36:11;;;;;;;;;13.75;12.25;;;;;12.56;55.87;102136.16;5081962;27;45364;-50
2021/10/23 04:38:37;;;;;;;;;15.75;13.25;;;;;12.56;56.16;102130.88;5081880;27;45314;-49
2021/10/23 04:41:02;;;;;;;;;17.00;10.75;;;;;12.55;55.89;102129.13;5081516;27;45269;-50
2021/10/23 04:43:28;;;;;;;;;13.75;12.75;;;;;12.55;56.11;102129.13;5081655;27;45292;-49
2021/10/23 04:45:53;;;;;;;;;12.50;12.00;;;;;12.56;56.05;102130.00;5081802;27;45251;-48
2021/10/23 04:48:19;;;;;;;;;20.25;14.25;;;;;12.55;56.13;102133.53;5083506;27;45428;-53
2021/10/23 04:50:44;;;;;;;;;26.00;22.50;;;;;12.55;56.17;102134.38;5092115;27;46172;-50
2021/10/23 04:53:09;;;;;;;;;18.50;15.00;;;;;12.54;55.85;102126.47;5081539;27;45349;-50
2021/10/23 04:55:35;;;;;;;;;30.50;24.75;;;;;12.56;56.24;102133.50;5080324;27;45470;-51
2021/10/23 04:58:00;;;;;;;;;11.75;11.25;;;;;12.57;56.06;102134.41;5081455;27;45240;-49
2021/10/23 05:00:26;;;;;;;;;19.00;13.75;;;;;12.58;55.85;102138.78;5081601;28;46148;-49
2021/10/23 05:02:51;;;;;;;;;19.00;15.50;;;;;12.58;55.97;102134.41;5063191;27;46128;-50
2021/10/23 05:05:17;;;;;;;;;17.00;14.75;;;;;12.57;56.18;102137.91;5081592;27;45293;-50
2021/10/23 05:07:42;;;;;;;;;18.75;14.50;;;;;12.56;55.92;102128.25;5081267;27;45184;-49
2021/10/23 05:10:08;;;;;;;;;13.25;12.50;;;;;12.56;56.18;102137.91;5079862;28;45612;-50
2021/10/23 05:12:34;;;;;;;;;17.00;14.25;;;;;12.59;56.10;102141.44;5080998;27;45243;-51
2021/10/23 05:14:59;;;;;;;;;19.00;15.75;;;;;12.57;56.19;102135.28;5080034;28;45624;-53
2021/10/23 05:17:24;;;;;;;;;12.00;11.00;;;;;12.58;56.05;102139.69;5081081;27;45386;-52
2021/10/23 05:19:50;;;;;;;;;14.50;12.50;;;;;12.58;55.93;102150.22;5081277;27;45955;-50
2021/10/23 05:22:15;;;;;;;;;13.25;12.50;;;;;12.58;55.88;102141.41;5081022;27;45476;-52
2021/10/23 05:24:40;;;;;;;;;12.00;10.75;;;;;12.58;56.04;102144.06;5079849;28;45310;-52
2021/10/23 05:27:06;;;;;;;;;11.00;11.00;;;;;12.57;56.03;102144.97;5086296;27;45329;-49
2021/10/23 05:29:31;;;;;;;;;14.00;14.00;;;;;12.57;55.99;102137.91;5101477;27;45302;-53
2021/10/23 05:31:56;;;;;;;;;13.75;11.75;;;;;12.55;56.07;102150.22;5085749;27;45479;-51
2021/10/23 05:34:23;;;;;;;;;17.50;12.75;;;;;12.54;56.21;102140.56;5081190;27;45473;-52
2021/10/23 05:36:49;;;;;;;;;14.25;11.25;;;;;12.53;55.98;102141.44;5079531;27;45410;-52
2021/10/23 05:39:14;;;;;;;;;13.50;12.00;;;;;12.52;56.22;102147.59;5080695;27;45318;-52
2021/10/23 05:41:40;;;;;;;;;13.00;12.00;;;;;12.51;56.21;102141.44;5080743;27;45421;-51
2021/10/23 05:44:05;;;;;;;;;16.25;12.50;;;;;12.50;56.14;102142.31;5081132;27;45316;-49
2021/10/23 05:46:31;;;;;;;;;13.50;13.25;;;;;12.50;56.24;102142.31;5080787;27;45370;-52
2021/10/23 05:48:56;;;;;;;;;17.25;11.75;;;;;12.48;55.90;102148.47;5086585;27;47522;-51
2021/10/23 05:51:21;;;;;;;;;11.50;10.50;;;;;12.42;55.94;102137.91;5085781;27;45447;-50
2021/10/23 05:53:47;;;;;;;;;10.75;8.50;;;;;12.45;55.92;102144.06;5080882;27;45311;-52
2021/10/23 05:56:12;;;;;;;;;13.25;9.50;;;;;12.46;56.16;102144.94;5080309;27;45177;-53
2021/10/23 05:58:37;;;;;;;;;14.50;13.00;;;;;12.47;56.20;102158.13;5080585;27;46018;-50
2021/10/23 06:01:07;;;;;;;;;13.50;13.00;;;;;12.47;56.19;102158.13;5079280;28;45264;-50
2021/10/23 06:03:37;;;;;;;;;12.25;11.00;;;;;12.48;56.17;102156.38;5080585;27;45330;-52
2021/10/23 06:06:04;;;;;;;;;12.50;12.00;;;;;12.47;56.16;102159.88;5080294;27;45239;-48
2021/10/23 06:08:31;;;;;;;;;15.75;11.50;;;;;12.47;56.10;102160.75;5080269;27;46364;-50
2021/10/23 06:10:56;;;;;;;;;11.25;9.75;;;;;12.48;56.24;102159.03;5079969;27;45366;-49
2021/10/23 06:13:23;;;;;;;;;11.25;11.00;;;;;12.49;56.32;102160.75;5080359;27;45337;-52
2021/10/23 06:15:52;;;;;;;;;12.75;12.25;;;;;12.49;56.08;102166.91;5080001;27;45323;-51
2021/10/23 06:18:18;;;;;;;;;11.75;11.75;;;;;12.50;56.34;102159.88;5080242;27;46645;-51
2021/10/23 06:20:44;;;;;;;;;13.00;13.00;;;;;12.48;56.14;102166.94;5080187;27;45220;-50
2021/10/23 06:23:09;;;;;;;;;15.75;12.00;;;;;12.52;56.12;102166.03;5079050;28;45387;-53
2021/10/23 06:25:35;;;;;;;;;15.00;15.00;;;;;12.52;56.17;102168.69;5080060;27;45675;-48
2021/10/23 06:28:00;;;;;;;;;17.25;14.75;;;;;12.51;56.04;102174.81;5093041;27;46120;-52
2021/10/23 06:30:26;;;;;;;;;19.00;15.25;;;;;12.52;56.39;102177.44;5096571;27;45347;-52
2021/10/23 06:32:53;;;;;;;;;14.75;11.25;;;;;12.52;56.09;102174.81;5080191;27;45336;-52
2021/10/23 06:35:20;;;;;;;;;20.75;17.75;;;;;12.54;56.24;102174.84;5080044;28;45336;-51
2021/10/23 06:37:46;;;;;;;;;20.50;17.50;;;;;12.53;56.29;102173.09;5080470;27;45507;-53
2021/10/23 06:40:13;;;;;;;;;20.75;20.25;;;;;12.57;56.28;102189.78;5083261;27;45283;-50
2021/10/23 06:42:39;;;;;;;;;25.50;21.00;;;;;12.58;56.18;102187.13;5083783;27;45227;-51
2021/10/23 06:45:07;;;;;;;;;22.00;21.50;;;;;12.58;56.24;102181.88;5083347;27;45529;-50
2021/10/23 06:47:32;;;;;;;;;25.00;22.50;;;;;12.60;56.40;102189.78;5083360;27;45911;-53
2021/10/23 06:49:58;;;;;;;;;28.50;22.25;;;;;12.60;56.46;102184.50;5095404;27;45367;-50
2021/10/23 06:52:25;;;;;;;;;25.00;21.50;;;;;12.61;56.18;102187.13;5083649;27;45381;-53
2021/10/23 06:54:50;;;;;;;;;23.25;20.50;;;;;12.62;56.09;102193.31;5083065;27;45161;-51
2021/10/23 06:57:16;;;;;;;;;29.25;24.75;;;;;12.63;56.33;102195.94;5083013;27;45280;-51
2021/10/23 06:59:41;;;;;;;;;19.75;17.50;;;;;12.64;56.36;102202.06;5083352;27;45181;-51
2021/10/23 07:02:06;;;;;;;;;19.00;16.25;;;;;12.65;56.18;102204.72;5083518;27;45149;-50
2021/10/23 07:04:32;;;;;;;;;21.25;17.00;;;;;12.66;56.00;102209.09;5083202;27;45283;-53
2021/10/23 07:06:57;;;;;;;;;23.00;17.75;;;;;12.67;56.00;102217.91;5082987;27;46052;-53
2021/10/23 07:09:22;;;;;;;;;19.50;19.00;;;;;12.69;56.39;102216.13;5081304;27;45849;-52
2021/10/23 07:11:48;;;;;;;;;21.00;16.75;;;;;12.70;56.30;102219.69;5081727;27;45335;-51
2021/10/23 07:14:14;;;;;;;;;19.00;17.25;;;;;12.71;56.09;102226.72;5082737;27;45197;-48
2021/10/23 07:16:39;;;;;;;;;16.25;15.75;;;;;12.71;56.49;102232.00;5082695;27;45871;-50
2021/10/23 07:19:05;;;;;;;;;18.75;17.50;;;;;12.72;56.11;102236.38;5082750;27;45372;-52
2021/10/23 07:21:30;;;;;;;;;17.25;16.75;;;;;12.74;56.17;102239.88;5081763;27;45296;-50
2021/10/23 07:23:58;;;;;;;;;21.00;20.25;;;;;12.77;56.07;102240.78;5082871;27;45426;-50
2021/10/23 07:26:23;;;;;;;;;19.00;17.50;;;;;12.78;55.66;102245.19;5082802;27;45322;-48
2021/10/23 07:28:49;;;;;;;;;20.00;19.75;;;;;12.76;56.30;102240.78;5102479;27;45272;-49
2021/10/23 07:31:14;;;;;;;;;21.25;19.75;;;;;12.80;56.49;102250.44;5093766;27;45309;-52
2021/10/23 07:33:39;;;;;;;;;24.25;19.25;;;;;12.81;56.13;102255.72;5082672;27;45347;-52
2021/10/23 07:36:05;;;;;;;;;18.50;16.75;;;;;12.82;56.07;102254.84;5081514;27;45348;-49
2021/10/23 07:38:30;;;;;;;;;21.25;16.50;;;;;12.83;56.54;102261.88;5082816;27;45384;-51
2021/10/23 07:40:57;;;;;;;;;18.75;16.00;;;;;12.86;56.43;102266.28;5081162;27;45456;-52
2021/10/23 07:43:22;;;;;;;;;24.50;20.25;;;;;12.87;56.22;102269.78;5082246;27;45369;-53
2021/10/23 07:45:49;;;;;;;;;23.25;20.50;;;;;12.87;56.23;102264.50;5082274;27;45223;-53
2021/10/23 07:48:18;;;;;;;;;22.25;18.50;;;;;12.91;56.57;102274.22;5083607;27;45223;-48
2021/10/23 07:50:45;;;;;;;;;24.00;23.25;;;;;12.92;56.25;102270.69;5091668;27;45406;-53
2021/10/23 07:53:10;;;;;;;;;20.00;18.25;;;;;12.95;56.04;102273.31;5080883;27;45426;-50
2021/10/23 07:55:36;;;;;;;;;21.75;17.25;;;;;12.96;56.21;102273.31;5081960;27;45340;-53
2021/10/23 07:58:02;;;;;;;;;19.50;19.25;;;;;12.98;56.61;102282.13;5082175;27;45302;-51
2021/10/23 08:00:28;;;;;;;;;20.50;20.00;;;;;12.99;56.32;102273.34;5082655;27;45252;-53
2021/10/23 08:02:54;;;;;;;;;21.75;18.00;;;;;13.03;56.13;102278.59;5080771;27;45181;-53
2021/10/23 08:05:22;;;;;;;;;19.25;19.25;;;;;13.04;56.28;102283.88;5081933;27;46305;-48
2021/10/23 08:07:48;;;;;;;;;18.75;17.00;;;;;13.07;56.50;102280.34;5081939;27;45386;-52
2021/10/23 08:10:13;;;;;;;;;16.00;15.00;;;;;13.08;56.09;102288.28;5082083;27;45430;-50
2021/10/23 08:12:40;;;;;;;;;19.00;14.75;;;;;13.12;56.21;102289.19;5082032;27;45629;-52
2021/10/23 08:15:06;;;;;;;;;18.75;16.00;;;;;13.14;56.21;102287.41;5081923;27;46136;-52
2021/10/23 08:17:31;;;;;;;;;17.25;17.00;;;;;13.13;56.65;102289.16;5081658;27;45235;-53
2021/10/23 08:19:57;;;;;;;;;15.25;15.00;;;;;13.17;56.25;102293.56;5082145;27;45275;-52
2021/10/23 08:22:22;;;;;;;;;17.50;17.25;;;;;13.19;56.44;102285.63;5081893;27;45453;-51
2021/10/23 08:24:48;;;;;;;;;18.50;15.75;;;;;13.22;56.23;102284.75;5081697;27;46009;-52
2021/10/23 08:27:14;;;;;;;;;14.75;14.00;;;;;13.25;56.57;102284.75;5088204;27;45252;-50
2021/10/23 08:29:41;;;;;;;;;19.75;18.25;;;;;13.27;56.09;102280.34;5102516;27;45250;-49
2021/10/23 08:32:07;;;;;;;;;18.00;18.00;;;;;13.30;56.60;102288.28;5084077;27;45624;-53
2021/10/23 08:34:32;;;;;;;;;14.25;13.25;;;;;13.32;56.37;102291.81;5081714;27;46275;-52
2021/10/23 08:36:57;;;;;;;;;18.00;17.50;;;;;13.33;56.25;102286.50;5081529;27;45377;-51
2021/10/23 08:39:23;;;;;;;;;18.00;17.25;;;;;13.38;56.41;102294.44;5081669;27;45290;-51
2021/10/23 08:41:49;;;;;;;;;21.00;18.75;;;;;13.40;56.27;102287.41;5081762;27;45296;-52
2021/10/23 08:44:18;;;;;;;;;21.00;18.25;;;;;13.42;56.25;102288.28;5081598;27;45811;-48
2021/10/23 08:46:45;;;;;;;;;48.75;38.50;;;;;13.45;56.50;102288.28;5081475;27;45245;-52
2021/10/23 08:49:12;;;;;;;;;20.50;16.00;;;;;13.48;56.18;102288.28;5090831;27;45394;-52
2021/10/23 08:51:37;;;;;;;;;16.25;16.00;;;;;13.52;56.46;102293.56;5082931;27;45467;-52
2021/10/23 08:54:03;;;;;;;;;32.00;27.75;;;;;13.54;56.27;102290.03;5081066;27;45969;-52
2021/10/23 08:56:29;;;;;;;;;13.25;12.75;;;;;13.59;56.22;102293.53;5081454;27;45357;-50
2021/10/23 08:58:54;;;;;;;;;15.00;14.50;;;;;13.63;56.06;102292.66;5081502;27;45407;-50
2021/10/23 09:01:21;;;;;;;;;17.00;15.75;;;;;13.67;56.14;102293.50;5079496;28;45463;-52
2021/10/23 09:03:47;;;;;;;;;17.25;14.75;;;;;13.73;56.32;102293.50;5081197;27;46199;-50
2021/10/23 09:06:37;;;;;;;;;12.25;12.25;;;;;13.77;56.43;102284.69;5081193;27;45351;-52
2021/10/23 09:09:09;;;;;;;;;20.00;18.50;;;;;13.84;56.29;102289.97;5081052;27;45311;-51
2021/10/23 09:11:38;;;;;;;;;20.00;19.00;;;;;13.90;56.08;102293.47;5081293;27;45478;-51
2021/10/23 09:14:24;;;;;;;;;25.25;24.00;;;;;13.96;56.33;102290.81;5080783;27;46153;-50
2021/10/23 09:17:10;;;;;;;;;22.25;19.50;;;;;14.03;55.88;102291.63;5080789;27;45430;-50
2021/10/23 09:19:45;;;;;;;;;21.50;19.75;;;;;14.10;55.98;102289.84;5087474;27;45341;-46
2021/10/23 09:22:40;;;;;;;;;20.00;15.75;;;;;14.17;56.32;102283.66;5101245;27;45236;-51
2021/10/23 09:25:09;;;;;;;;;15.50;15.50;;;;;14.24;56.45;102288.03;5101190;27;45315;-50
2021/10/23 09:27:35;;;;;;;;;19.00;17.00;;;;;14.30;56.52;102280.06;5101075;27;45309;-51
2021/10/23 09:30:00;;;;;;;;;17.75;17.75;;;;;14.39;55.82;102283.53;5099844;27;45347;-51
2021/10/23 09:32:33;;;;;;;;;17.25;14.25;;;;;14.46;55.82;102278.22;5081606;27;45334;-51
2021/10/23 09:35:15;;;;;;;;;16.50;16.50;;;;;14.54;55.74;102278.19;5080754;27;45540;-49
2021/10/23 09:37:45;;;;;;;;;24.00;18.25;;;;;14.65;56.21;102277.25;5080869;27;45219;-51
2021/10/23 09:40:21;;;;;;;;;61.75;50.00;;;;;14.72;56.35;102284.28;5080520;27;45380;-52
2021/10/23 09:42:47;;;;;;;;;24.25;24.00;;;;;14.76;55.75;102270.97;5080558;28;45260;-51
2021/10/23 09:45:12;;;;;;;;;22.50;21.00;;;;;14.92;55.86;102274.41;5080595;27;46582;-51
2021/10/23 09:47:50;;;;;;;;;53.75;43.75;;;;;15.03;56.35;102282.25;5080564;28;45317;-52
2021/10/23 09:50:18;;;;;;;;;32.50;29.75;;;;;15.18;55.99;102275.97;5093154;27;45455;-55
2021/10/23 09:53:07;;;;;;;;;17.75;15.00;;;;;15.34;56.11;102281.09;5080610;27;45418;-51
2021/10/23 09:55:35;;;;;;;;;16.75;15.50;;;;;15.47;55.85;102281.84;5089516;27;46005;-51
2021/10/23 09:58:24;;;;;;;;;18.75;18.25;;;;;15.63;56.05;102277.28;5100685;27;45279;-52
2021/10/23 10:00:51;;;;;;;;;15.25;15.25;;;;;15.76;55.75;102268.31;5090269;27;45278;-49
2021/10/23 10:03:18;;;;;;;;;17.75;17.75;;;;;15.89;55.85;102283.19;5100671;27;45272;-52
2021/10/23 10:05:44;;;;;;;;;23.75;17.75;;;;;16.04;56.27;102278.59;5100551;27;47278;-52
2021/10/23 10:08:14;;;;;;;;;16.75;15.50;;;;;16.18;55.90;102275.78;5100540;27;45340;-52
2021/10/23 10:10:46;;;;;;;;;14.25;14.25;;;;;16.32;56.11;102268.47;5100741;27;45370;-52
2021/10/23 10:13:23;;;;;;;;;17.25;15.50;;;;;16.49;55.64;102276.22;5099794;27;45286;-49
2021/10/23 10:15:53;;;;;;;;;16.75;14.00;;;;;16.69;56.12;102283.00;5100274;27;45480;-49
2021/10/23 10:18:20;;;;;;;;;15.75;14.75;;;;;16.86;55.74;102280.94;5100753;27;45276;-50
2021/10/23 10:20:49;;;;;;;;;20.00;14.75;;;;;17.07;55.76;102284.19;5100611;27;45326;-52
2021/10/23 10:23:19;;;;;;;;;15.00;12.00;;;;;17.27;55.63;102285.63;5100672;27;45635;-49
2021/10/23 10:26:12;;;;;;;;;13.25;13.25;;;;;17.46;55.63;102280.84;5098877;27;45464;-53
2021/10/23 10:29:07;;;;;;;;;12.50;12.50;;;;;17.66;55.51;102270.72;5100162;27;45369;-53
2021/10/23 10:42:54;;;;;;;;;6.75;4.25;;;;;18.62;54.90;102274.00;5100462;27;45415;-50
2021/10/23 10:45:48;;;;;;;;;9.25;8.00;;;;;18.80;54.46;102275.38;5100126;27;45390;-53
2021/10/23 10:48:21;;;;;;;;;12.75;8.00;;;;;18.95;54.40;102262.59;5099955;27;46966;-50
2021/10/23 10:50:58;;;;;;;;;5.50;5.25;;;;;19.10;54.80;102266.66;5090083;27;45273;-50
2021/10/23 10:53:33;;;;;;;;;5.75;5.75;;;;;19.23;54.28;102268.09;5079852;27;45311;-53
2021/10/23 10:55:59;;;;;;;;;15.75;13.50;;;;;19.35;54.33;102261.56;5091445;27;46201;-51
2021/10/23 10:58:49;;;;;;;;;14.25;11.25;;;;;19.47;53.65;102263.88;5100030;27;45426;-54
2021/10/23 11:01:34;;;;;;;;;10.00;10.00;;;;;19.60;54.30;102261.75;5100237;27;45243;-53
2021/10/23 11:04:10;;;;;;;;;9.00;8.50;;;;;19.73;53.74;102251.59;5100360;27;45267;-51
2021/10/23 11:06:38;;;;;;;;;11.50;10.50;;;;;19.87;53.48;102245.03;5100108;27;45284;-55
2021/10/23 11:09:16;;;;;;;;;12.50;12.50;;;;;19.99;53.78;102244.66;5099660;27;45337;-52
2021/10/23 11:11:45;;;;;;;;;10.50;9.50;;;;;20.12;53.58;102253.16;5099937;27;45160;-51
2021/10/23 11:16:54;;;;;;;;;12.00;12.00;;;;;20.37;52.91;102249.75;5099713;27;45483;-54
2021/10/23 11:19:24;;;;;;;;;14.00;10.75;;;;;20.50;53.06;102243.06;5099694;27;46306;-54
2021/10/23 11:22:18;;;;;;;;;11.00;11.00;;;;;20.67;53.24;102239.00;5099892;27;45325;-54
2021/10/23 11:25:05;;;;;;;;;9.00;8.00;;;;;20.78;53.07;102237.75;5095949;27;45507;-54